1898 NOT_NAMED (1898355S17043)


IBTrACS version v04r00. Visit IBTrACS website for data access.
Please direct all questions to the IBTrACS Q and A forum

Storm track - Intensity - Wind Radii - Intensity Data - Source Data - All data

Summary Information

Storm ID 1898355S17043
Start Dec 21 06Z
End Dec 28 06Z
ATCF IDs
Track status Best track data.

Storm track plot

Map of storm track

Intensity plots

No Intensity information for this storm


Radial wind information

No radial wind information for this storm


Position and Intensity Table

BASIN ISO_TIME_________ NATURE LAT LON
degrees north degrees east
SI 1898-12-21 06:00:00 NR -16.65 43.30
SI 09:00:00 NR -16.76 43.30
SI 12:00:00 NR -16.87 43.30
SI 15:00:00 NR -16.97 43.31
SI 18:00:00 NR -17.06 43.31
SI 21:00:00 NR -17.14 43.31
SI 1898-12-22 00:00:00 NR -17.21 43.31
SI 03:00:00 NR -17.28 43.30
SI 06:00:00 NR -17.35 43.30
SI 09:00:00 NR -17.45 43.30
SI 12:00:00 NR -17.55 43.29
SI 15:00:00 NR -17.65 43.28
SI 18:00:00 NR -17.75 43.28
SI 21:00:00 NR -17.83 43.27
SI 1898-12-23 00:00:00 NR -17.90 43.26
SI 03:00:00 NR -17.97 43.25
SI 06:00:00 NR -18.05 43.25
SI 09:00:00 NR -18.15 43.25
SI 12:00:00 NR -18.25 43.24
SI 15:00:00 NR -18.35 43.24
SI 18:00:00 NR -18.45 43.24
SI 21:00:00 NR -18.54 43.24
SI 1898-12-24 00:00:00 NR -18.63 43.24
SI 03:00:00 NR -18.72 43.25
SI 06:00:00 NR -18.80 43.25
SI 09:00:00 NR -18.88 43.25
SI 12:00:00 NR -18.96 43.26
SI 15:00:00 NR -19.03 43.26
SI 18:00:00 NR -19.10 43.27
SI 21:00:00 NR -19.17 43.29
SI 1898-12-25 00:00:00 NR -19.24 43.31
SI 03:00:00 NR -19.32 43.33
SI 06:00:00 NR -19.40 43.35
SI 09:00:00 NR -19.50 43.35
SI 12:00:00 NR -19.61 43.36
SI 15:00:00 NR -19.72 43.35
SI 18:00:00 NR -19.82 43.35
SI 21:00:00 NR -19.91 43.35
SI 1898-12-26 00:00:00 NR -19.91 43.34
SI 03:00:00 NR -19.90 43.33
SI 06:00:00 NR -19.86 43.32
SI 09:00:00 NR -19.79 43.31
SI 12:00:00 NR -19.87 43.32
SI 15:00:00 NR -19.96 43.33
SI 18:00:00 NR -20.04 43.34
SI 21:00:00 NR -20.13 43.36
SI 1898-12-27 00:00:00 NR -20.22 43.37
SI 03:00:00 NR -20.31 43.39
SI 06:00:00 NR -20.40 43.40
SI 09:00:00 NR -20.49 43.41
SI 12:00:00 NR -20.59 43.43
SI 15:00:00 NR -20.69 43.44
SI 18:00:00 NR -20.79 43.45
SI 21:00:00 NR -20.89 43.46
SI 1898-12-28 00:00:00 NR -20.99 43.48
SI 03:00:00 NR -21.10 43.49
SI 06:00:00 NR -21.20 43.50

Source Information

Agency Information
USA
TOKYO
CMA
HKO
NEWDELHI
REUNION WMO-Best-Tracks.txt:Line=1837:xxxx898268
BOM
NADI
WELLINGTON
DS824
TD9636 cons_worldwide_trop_cyclone_18710101-19891231-005:Line=2461
TD9635
NEUMANN
MLC

All available IBTrACS Data

SEASON BASIN SUBBASIN ISO_TIME_________ NATURE LAT LON WMO AGENCY DIST2LAND LANDFALL IFLAG USA SSHS REUNION LAT REUNION LON REUNION TYPE REUNION TNUM TD9636 LAT TD9636 LON TD9636 STAGE STORM SPEED STORM DIR
Year degrees north degrees east km km 1 degrees north degrees east 1 degrees north degrees east kts degrees
1899 SI MM 1898-12-21 06:00:00 NR -16.65 43.30 reunion 108 96 _____O____O___ -1 -16.20 43.30 99 9.90 -17.10 43.30 7 2 0
1899 SI MM 09:00:00 NR -16.76 43.30 96 91 _____P____P___ -1 -16.31 43.30 99 -17.22 43.30 7 2 0
1899 SI MM 12:00:00 NR -16.87 43.30 91 84 _____P____P___ -1 -16.42 43.31 99 -17.33 43.30 7 2 0
1899 SI MM 15:00:00 NR -16.97 43.31 84 77 _____P____P___ -1 -16.52 43.31 99 -17.42 43.30 7 2 0
1899 SI MM 18:00:00 NR -17.06 43.31 77 77 _____P____O___ -1 -16.62 43.31 99 -17.50 43.30 7 2 172
1899 SI MM 21:00:00 NR -17.14 43.31 77 71 _____P____P___ -1 -16.73 43.31 99 -17.55 43.30 7 1 0
1899 SI MM 1898-12-22 00:00:00 NR -17.21 43.31 71 67 _____P____P___ -1 -16.82 43.31 99 -17.59 43.30 7 1 186
1899 SI MM 03:00:00 NR -17.28 43.30 67 67 _____P____P___ -1 -16.91 43.31 99 -17.64 43.30 7 1 0
1899 SI MM 06:00:00 NR -17.35 43.30 reunion 67 64 _____O____O___ -1 -17.00 43.30 99 9.90 -17.70 43.30 7 2 188
1899 SI MM 09:00:00 NR -17.45 43.30 64 63 _____P____P___ -1 -17.08 43.29 99 -17.81 43.30 7 2 0
1899 SI MM 12:00:00 NR -17.55 43.29 63 63 _____P____P___ -1 -17.16 43.28 99 -17.94 43.30 7 2 0
1899 SI MM 15:00:00 NR -17.65 43.28 67 67 _____P____P___ -1 -17.23 43.26 99 -18.08 43.30 7 2 186
1899 SI MM 18:00:00 NR -17.75 43.28 67 71 _____P____O___ -1 -17.30 43.25 99 -18.20 43.30 7 2 188
1899 SI MM 21:00:00 NR -17.83 43.27 71 71 _____P____P___ -1 -17.37 43.24 99 -18.29 43.30 7 2 0
1899 SI MM 1898-12-23 00:00:00 NR -17.90 43.26 74 74 _____P____P___ -1 -17.44 43.22 99 -18.36 43.30 7 1 0
1899 SI MM 03:00:00 NR -17.97 43.25 74 74 _____P____P___ -1 -17.52 43.21 99 -18.43 43.30 7 2 0
1899 SI MM 06:00:00 NR -18.05 43.25 reunion 74 74 _____O____O___ -1 -17.60 43.20 99 9.90 -18.50 43.30 7 2 0
1899 SI MM 09:00:00 NR -18.15 43.25 84 84 _____P____P___ -1 -17.69 43.19 99 -18.60 43.30 7 2 186
1899 SI MM 12:00:00 NR -18.25 43.24 84 84 _____P____P___ -1 -17.79 43.19 99 -18.70 43.30 7 2 187
1899 SI MM 15:00:00 NR -18.35 43.24 84 84 _____P____P___ -1 -17.90 43.19 99 -18.80 43.30 7 2 0
1899 SI MM 18:00:00 NR -18.45 43.24 84 84 _____P____O___ -1 -18.00 43.19 99 -18.90 43.30 7 2 176
1899 SI MM 21:00:00 NR -18.54 43.24 85 85 _____P____P___ -1 -18.10 43.19 99 -18.98 43.30 7 2 0
1899 SI MM 1898-12-24 00:00:00 NR -18.63 43.24 87 87 _____P____P___ -1 -18.21 43.19 99 -19.06 43.30 7 2 0
1899 SI MM 03:00:00 NR -18.72 43.25 90 90 _____P____P___ -1 -18.31 43.19 99 -19.13 43.30 7 2 0
1899 SI MM 06:00:00 NR -18.80 43.25 reunion 86 86 _____O____O___ -1 -18.40 43.20 99 9.90 -19.20 43.30 7 2 172
1899 SI MM 09:00:00 NR -18.88 43.25 92 92 _____P____P___ -1 -18.48 43.21 99 -19.27 43.30 7 2 0
1899 SI MM 12:00:00 NR -18.96 43.26 94 94 _____P____P___ -1 -18.56 43.22 99 -19.35 43.29 7 2 171
1899 SI MM 15:00:00 NR -19.03 43.26 94 94 _____P____P___ -1 -18.63 43.24 99 -19.42 43.29 7 2 0
1899 SI MM 18:00:00 NR -19.10 43.27 94 94 _____P____O___ -1 -18.71 43.25 99 -19.50 43.30 7 1 0
1899 SI MM 21:00:00 NR -19.17 43.29 95 95 _____P____P___ -1 -18.78 43.26 99 -19.57 43.32 7 1 167
1899 SI MM 1898-12-25 00:00:00 NR -19.24 43.31 95 95 _____P____P___ -1 -18.85 43.28 99 -19.64 43.35 7 2 167
1899 SI MM 03:00:00 NR -19.32 43.33 97 97 _____P____P___ -1 -18.92 43.29 99 -19.71 43.38 7 2 164
1899 SI MM 06:00:00 NR -19.40 43.35 reunion 90 90 _____O____O___ -1 -19.00 43.30 99 9.90 -19.80 43.40 7 2 178
1899 SI MM 09:00:00 NR -19.50 43.35 95 95 _____P____P___ -1 -19.08 43.30 99 -19.92 43.41 7 2 176
1899 SI MM 12:00:00 NR -19.61 43.36 100 100 _____P____P___ -1 -19.17 43.30 99 -20.06 43.41 7 2 187
1899 SI MM 15:00:00 NR -19.72 43.35 105 104 _____P____P___ -1 -19.25 43.30 99 -20.19 43.40 7 2 185
1899 SI MM 18:00:00 NR -19.82 43.35 104 104 _____P____O___ -1 -19.34 43.30 99 -20.30 43.40 7 2 186
1899 SI MM 21:00:00 NR -19.91 43.35 107 107 _____P____P___ -1 -19.43 43.30 99 -20.38 43.40 7 1 0
1899 SI MM 1898-12-26 00:00:00 NR -19.91 43.34 107 107 _____P____P___ -1 -19.52 43.30 99 -20.43 43.40 7 0 0
1899 SI MM 03:00:00 NR -19.90 43.33 107 107 _____P____P___ -1 -19.61 43.30 99 -20.47 43.40 7 1 340
1899 SI MM 06:00:00 NR -19.86 43.32 reunion 107 107 _____O____O___ -1 -19.70 43.30 99 9.90 -20.50 43.40 7 1 0
1899 SI MM 09:00:00 NR -19.79 43.31 114 107 _____P________ -1 -19.79 43.31 99 7 0 0
1899 SI MM 12:00:00 NR -19.87 43.32 107 100 _____P________ -1 -19.87 43.32 99 7 2 172
1899 SI MM 15:00:00 NR -19.96 43.33 100 100 _____P________ -1 -19.96 43.33 99 7 2 174
1899 SI MM 18:00:00 NR -20.04 43.34 100 85 _____P________ -1 -20.04 43.34 99 2 0
1899 SI MM 21:00:00 NR -20.13 43.36 85 80 _____P________ -1 -20.13 43.36 99 2 172
1899 SI MM 1898-12-27 00:00:00 NR -20.22 43.37 80 76 _____P________ -1 -20.22 43.37 99 2 0
1899 SI MM 03:00:00 NR -20.31 43.39 76 68 _____P________ -1 -20.31 43.39 99 2 0
1899 SI MM 06:00:00 NR -20.40 43.40 reunion 68 61 _____O________ -1 -20.40 43.40 99 9.90 2 0
1899 SI MM 09:00:00 NR -20.49 43.41 61 56 _____P________ -1 -20.49 43.41 99 2 0
1899 SI MM 12:00:00 NR -20.59 43.43 56 53 _____P________ -1 -20.59 43.43 99 2 0
1899 SI MM 15:00:00 NR -20.69 43.44 53 41 _____P________ -1 -20.69 43.44 99 2 0
1899 SI MM 18:00:00 NR -20.79 43.45 41 41 _____P________ -1 -20.79 43.45 99 2 178
1899 SI MM 21:00:00 NR -20.89 43.46 41 41 _____P________ -1 -20.89 43.46 99 2 172
1899 SI MM 1898-12-28 00:00:00 NR -20.99 43.48 41 33 _____P________ -1 -20.99 43.48 99 2 177
1899 SI MM 03:00:00 NR -21.10 43.49 33 22 _____P________ -1 -21.10 43.49 99 2 0
1899 SI MM 06:00:00 NR -21.20 43.50 reunion 22 _____O________ -1 -21.20 43.50 99 9.90 2 171